Trujillo, Peru
Current Conditions -  °F | °C
As of 2:00 AM on Saturday 25 Oct 2014 (Local Time) from SPRU Reporting Station
Overcast Overcast  
Wind Chill: 64°   Ceiling: 2000
Heat Index: 64°   Visibility: 4mi
Dew Point: 59°   Wind: 3mph
Humidity: 83%   Direction: 120°ESE
Pressure: 29.97"   Gusts: NA
Location:  8.11°S, 79.03°W
Report Text: SPRU 250700Z 12003KT 6000 OVC020 18/15 Q1015 RMK PP000
Loading
Personal Weather Stations






























Interactive Weather Map
Tropical Storm Tracking
New forecast layout! Learn more

10-Day Weather Forecast

Advertisements
Track Severe Weather on mobile